< < Back
Terminal Aerodrome Forecast


Current Version              Previous Versions:   1  2  3  4  5  6  7  8  9  

Terminal Aerodrome Forecast

192
FTUS42 KFFC 230817 AAA
TAFMCN
TAF AMD
KMCN 230817Z 2308/2406 08007KT 3SM RA BR OVC006
     FM231200 12010G17KT 2SM SHRA BR OVC005 PROB30 2317/2320 2SM
      TSRA OVC015CB
     FM232000 16010G19KT 5SM BR VCSH OVC009
     FM240200 19008KT 4SM BR OVC007=

Latest METAR

781
SAUS80 KWBC 231400
MTRMCN
METAR KMCN 231353Z 09008KT 3SM -RA BR BKN007 OVC013 14/14 A3000 RMK AO2
SLP156 P0015 T01440144


USA.gov is the U.S. government's official web portal to all federal, state and local government web resources and services.